createdAt,value
2022-10-25T00:01:32.493Z,99.90
2022-10-25T00:04:02.692Z,99.90
2022-10-25T00:06:31.273Z,99.90
2022-10-25T00:08:59.932Z,99.90
2022-10-25T00:11:30.919Z,99.90
2022-10-25T00:14:01.784Z,99.90
2022-10-25T00:16:33.018Z,99.90
2022-10-25T00:19:03.042Z,99.90
2022-10-25T00:21:31.673Z,99.90
2022-10-25T00:24:00.386Z,99.90
2022-10-25T00:26:29.280Z,99.90
2022-10-25T00:28:58.172Z,99.90
2022-10-25T00:31:26.803Z,99.90
2022-10-25T00:33:55.365Z,99.90
2022-10-25T00:36:27.497Z,99.90
2022-10-25T00:38:59.275Z,99.90
2022-10-25T00:41:29.895Z,99.90
2022-10-25T00:44:51.771Z,99.90
2022-10-25T00:47:32.138Z,99.90
2022-10-25T00:50:04.521Z,99.90
2022-10-25T00:52:38.098Z,99.90
2022-10-25T00:55:09.449Z,99.90
2022-10-25T00:57:42.679Z,99.90
2022-10-25T01:00:12.619Z,99.90
2022-10-25T01:02:41.453Z,99.90
2022-10-25T01:05:10.986Z,99.90
2022-10-25T01:07:41.678Z,99.90
2022-10-25T01:10:11.103Z,99.90
2022-10-25T01:12:39.764Z,99.90
2022-10-25T01:18:18.447Z,99.90
2022-10-25T01:21:30.907Z,99.90
2022-10-25T01:24:21.182Z,99.90
2022-10-25T01:27:23.454Z,99.90
2022-10-25T01:30:06.129Z,99.90
2022-10-25T01:32:45.431Z,99.90
2022-10-25T01:35:27.963Z,99.90
2022-10-25T01:38:20.274Z,99.90
2022-10-25T01:40:55.987Z,99.90
2022-10-25T01:43:35.406Z,99.90
2022-10-25T01:46:13.553Z,99.90
2022-10-25T01:48:47.949Z,99.90
2022-10-25T01:51:19.226Z,99.90
2022-10-25T01:53:50.287Z,99.90
2022-10-25T01:56:25.743Z,99.90
2022-10-25T01:59:18.400Z,99.90
2022-10-25T02:01:59.732Z,99.90
2022-10-25T02:04:40.819Z,99.90
2022-10-25T02:07:16.954Z,99.90
2022-10-25T02:09:53.995Z,99.90
2022-10-25T02:12:28.807Z,99.90
2022-10-25T02:15:07.176Z,99.90
2022-10-25T02:17:39.785Z,99.90
2022-10-25T02:20:11.580Z,99.90
2022-10-25T02:22:43.536Z,99.90
2022-10-25T02:25:13.806Z,99.90
2022-10-25T02:27:45.748Z,99.90
2022-10-25T02:30:15.223Z,99.90
2022-10-25T02:32:44.140Z,99.90
2022-10-25T02:35:16.949Z,99.90
2022-10-25T02:37:46.336Z,99.90
2022-10-25T02:40:15.798Z,99.90
2022-10-25T02:42:46.759Z,99.90
2022-10-25T02:45:15.687Z,99.90
2022-10-25T02:47:44.926Z,99.90
2022-10-25T02:50:15.661Z,99.90
2022-10-25T02:52:44.678Z,99.90
2022-10-25T02:55:13.862Z,99.90
2022-10-25T02:57:42.689Z,99.90
2022-10-25T03:02:47.153Z,99.90
2022-10-25T03:05:17.742Z,99.90
2022-10-25T03:07:46.605Z,99.90
2022-10-25T03:10:15.707Z,99.90
2022-10-25T03:12:44.850Z,99.90
2022-10-25T03:15:14.255Z,99.90
2022-10-25T03:17:43.101Z,99.90
2022-10-25T03:20:12.541Z,99.90
2022-10-25T03:22:42.898Z,99.90
2022-10-25T03:25:11.862Z,99.90
2022-10-25T03:27:40.810Z,99.90
2022-10-25T03:30:10.448Z,99.90
2022-10-25T03:32:39.442Z,99.90
2022-10-25T03:35:09.434Z,99.90
2022-10-25T03:37:38.217Z,99.90
2022-10-25T03:40:09.855Z,99.90
2022-10-25T03:42:38.828Z,99.90
2022-10-25T03:45:08.436Z,99.90
2022-10-25T03:47:37.226Z,99.90
2022-10-25T03:50:07.335Z,99.90
2022-10-25T03:52:36.409Z,99.90
2022-10-25T03:55:06.439Z,99.90
2022-10-25T03:57:37.024Z,99.90
2022-10-25T04:00:06.495Z,99.90
2022-10-25T04:02:40.529Z,99.90
2022-10-25T04:05:10.539Z,99.90
2022-10-25T04:07:39.429Z,99.90
2022-10-25T04:10:08.855Z,99.90
2022-10-25T04:12:39.037Z,99.90
2022-10-25T04:15:09.005Z,99.90
2022-10-25T04:17:37.888Z,99.90
2022-10-25T04:20:07.626Z,99.90
2022-10-25T04:25:06.935Z,99.90
2022-10-25T04:27:35.725Z,99.90
2022-10-25T04:30:06.495Z,99.90
2022-10-25T04:32:35.264Z,99.90
2022-10-25T04:35:03.995Z,99.90
2022-10-25T04:37:32.846Z,99.90
2022-10-25T04:40:01.581Z,99.90
2022-10-25T04:42:30.381Z,99.90
2022-10-25T04:44:59.221Z,99.90
2022-10-25T04:47:34.760Z,99.90
2022-10-25T04:50:03.676Z,99.90
2022-10-25T04:52:32.841Z,99.90
2022-10-25T04:55:01.703Z,99.90
2022-10-25T04:57:30.610Z,99.90
2022-10-25T04:59:59.494Z,99.90
2022-10-25T05:02:29.835Z,99.90
2022-10-25T05:04:58.835Z,99.90
2022-10-25T05:07:27.664Z,99.90
2022-10-25T05:09:56.592Z,99.90
2022-10-25T05:12:25.724Z,99.90
2022-10-25T05:14:54.615Z,99.90
2022-10-25T05:17:23.422Z,99.90
2022-10-25T05:19:53.835Z,99.90
2022-10-25T05:22:22.881Z,99.90
2022-10-25T05:24:51.884Z,99.90
2022-10-25T05:27:20.884Z,99.90
2022-10-25T05:29:50.874Z,99.90
2022-10-25T05:32:19.775Z,99.90
2022-10-25T05:34:48.858Z,99.90
2022-10-25T05:37:19.576Z,99.90
2022-10-25T05:39:48.480Z,99.90
2022-10-25T05:42:17.384Z,99.90
2022-10-25T05:44:46.273Z,99.90
2022-10-25T05:47:15.176Z,99.90
2022-10-25T05:49:44.047Z,99.90
2022-10-25T05:52:13.690Z,99.90
2022-10-25T05:54:44.081Z,99.90
2022-10-25T05:57:12.891Z,99.90
2022-10-25T05:59:41.795Z,99.90
2022-10-25T06:02:12.255Z,99.90
2022-10-25T06:04:41.203Z,99.90
2022-10-25T06:07:10.088Z,99.90
2022-10-25T06:09:38.919Z,99.90
2022-10-25T06:12:09.732Z,99.90
2022-10-25T06:14:38.971Z,99.90
2022-10-25T06:17:07.877Z,99.90
2022-10-25T06:19:36.787Z,99.90
2022-10-25T06:22:05.669Z,99.90
2022-10-25T06:24:34.522Z,99.90
2022-10-25T06:27:03.452Z,99.90
2022-10-25T06:29:33.845Z,99.90
2022-10-25T06:32:02.781Z,99.90
2022-10-25T06:34:31.709Z,99.90
2022-10-25T06:37:00.596Z,99.90
2022-10-25T06:39:29.691Z,99.90
2022-10-25T06:41:58.684Z,99.90
2022-10-25T06:44:27.650Z,99.90
2022-10-25T06:49:49.392Z,99.90
2022-10-25T06:52:18.320Z,99.90
2022-10-25T06:54:47.196Z,99.90
2022-10-25T06:57:17.190Z,99.90
2022-10-25T06:59:46.621Z,99.90
2022-10-25T07:02:16.962Z,99.90
2022-10-25T07:04:46.287Z,99.90
2022-10-25T07:07:15.158Z,99.90
2022-10-25T07:09:44.093Z,99.90
2022-10-25T07:12:13.039Z,99.90
2022-10-25T07:14:41.903Z,99.90
2022-10-25T07:17:10.793Z,99.90
2022-10-25T07:19:41.292Z,99.90
2022-10-25T07:22:10.275Z,99.90
2022-10-25T07:24:39.150Z,99.90
2022-10-25T07:27:08.567Z,99.90
2022-10-25T07:29:37.592Z,99.90
2022-10-25T07:32:06.965Z,99.90
2022-10-25T07:34:35.922Z,99.90
2022-10-25T07:37:07.268Z,99.90
2022-10-25T07:39:36.288Z,99.90
2022-10-25T07:42:05.396Z,99.90
2022-10-25T07:44:34.535Z,99.90
2022-10-25T07:47:03.455Z,99.90
2022-10-25T07:49:32.434Z,99.90
2022-10-25T07:52:01.386Z,99.90
2022-10-25T07:54:31.782Z,99.90
2022-10-25T07:57:01.434Z,99.90
2022-10-25T07:59:30.639Z,99.90
2022-10-25T08:01:59.655Z,99.90
2022-10-25T08:07:05.936Z,99.90
2022-10-25T08:09:38.567Z,99.90
2022-10-25T08:12:08.109Z,99.90
2022-10-25T08:14:40.703Z,99.90
2022-10-25T08:17:11.352Z,99.90
2022-10-25T08:19:40.435Z,99.90
2022-10-25T08:22:10.162Z,99.90
2022-10-25T08:24:40.794Z,99.90
2022-10-25T08:27:09.846Z,99.90
2022-10-25T08:29:38.778Z,99.90
2022-10-25T08:32:07.814Z,99.90
2022-10-25T08:34:36.814Z,99.90
2022-10-25T08:37:05.895Z,99.90
2022-10-25T08:39:34.812Z,99.90
2022-10-25T08:42:05.665Z,99.90
2022-10-25T08:44:45.823Z,99.90
2022-10-25T08:47:21.295Z,99.90
2022-10-25T08:49:57.705Z,99.90
2022-10-25T08:52:33.856Z,99.90
2022-10-25T08:55:06.240Z,99.90
2022-10-25T08:57:45.402Z,99.90
2022-10-25T09:00:21.063Z,99.90
2022-10-25T09:02:53.926Z,99.90
2022-10-25T09:05:37.886Z,99.90
2022-10-25T09:08:29.757Z,99.90
2022-10-25T09:11:06.665Z,99.90
2022-10-25T09:13:44.653Z,99.90
2022-10-25T09:16:18.254Z,99.90
2022-10-25T09:18:51.724Z,99.90
2022-10-25T09:21:24.516Z,99.90
2022-10-25T09:24:00.327Z,99.90
2022-10-25T09:26:44.634Z,99.90
2022-10-25T09:29:24.902Z,99.90
2022-10-25T09:31:59.075Z,99.90
2022-10-25T09:34:33.165Z,99.90
2022-10-25T09:37:12.048Z,99.90
2022-10-25T09:39:44.367Z,99.90
2022-10-25T09:42:20.768Z,99.90
2022-10-25T09:44:55.030Z,99.90
2022-10-25T09:47:36.628Z,99.90
2022-10-25T09:50:08.256Z,99.90
2022-10-25T09:52:47.112Z,99.90
2022-10-25T09:55:33.171Z,99.90
2022-10-25T09:58:03.592Z,99.90
2022-10-25T10:00:38.049Z,99.90
2022-10-25T10:03:09.787Z,99.90
2022-10-25T10:05:39.528Z,99.90
2022-10-25T10:08:10.796Z,99.90
2022-10-25T10:10:40.532Z,99.90
2022-10-25T10:13:18.285Z,99.90
2022-10-25T10:15:54.952Z,99.90
2022-10-25T10:18:27.229Z,99.90
2022-10-25T10:21:15.108Z,99.90
2022-10-25T10:23:52.428Z,99.90
2022-10-25T10:26:47.296Z,99.90
2022-10-25T10:29:21.416Z,99.90
2022-10-25T10:31:53.927Z,99.90
2022-10-25T10:34:28.326Z,99.90
2022-10-25T10:37:05.683Z,99.90
2022-10-25T10:39:35.066Z,99.60
2022-10-25T10:42:16.095Z,98.70
2022-10-25T10:45:03.067Z,98.20
2022-10-25T10:47:36.480Z,97.60
2022-10-25T10:50:13.234Z,97.60
2022-10-25T10:52:46.147Z,97.10
2022-10-25T10:55:19.862Z,96.80
2022-10-25T10:57:48.916Z,96.30
2022-10-25T11:00:29.763Z,96.10
2022-10-25T11:03:00.148Z,95.20
2022-10-25T11:05:30.748Z,94.60
2022-10-25T11:08:01.917Z,93.70
2022-10-25T11:10:33.027Z,93.80
2022-10-25T11:13:10.364Z,92.50
2022-10-25T11:15:58.725Z,92.30
2022-10-25T11:18:40.518Z,92.00
2022-10-25T11:21:19.788Z,91.20
2022-10-25T11:24:01.500Z,90.30
2022-10-25T11:26:36.808Z,89.10
2022-10-25T11:29:13.069Z,87.80
2022-10-25T11:31:56.343Z,88.10
2022-10-25T11:34:36.220Z,86.20
2022-10-25T11:37:14.338Z,83.70
2022-10-25T11:39:54.928Z,83.70
2022-10-25T11:42:53.490Z,83.40
2022-10-25T11:45:33.239Z,83.30
2022-10-25T11:48:16.572Z,81.50
2022-10-25T11:50:55.265Z,81.00
2022-10-25T11:53:37.782Z,80.60
2022-10-25T11:56:15.247Z,80.30
2022-10-25T11:58:53.054Z,78.50
2022-10-25T12:01:39.622Z,78.50
2022-10-25T12:04:28.418Z,77.40
2022-10-25T12:07:06.584Z,76.00
2022-10-25T12:09:47.303Z,75.80
2022-10-25T12:12:21.776Z,75.20
2022-10-25T12:14:54.102Z,73.80
2022-10-25T12:17:28.104Z,72.60
2022-10-25T12:19:59.587Z,73.90
2022-10-25T12:22:35.623Z,73.30
2022-10-25T12:25:08.147Z,71.80
2022-10-25T12:27:37.726Z,72.40
2022-10-25T12:30:08.941Z,71.40
2022-10-25T12:32:41.792Z,71.20
2022-10-25T12:35:21.701Z,71.50
2022-10-25T12:37:58.976Z,71.30
2022-10-25T12:40:29.859Z,69.00
2022-10-25T12:43:06.401Z,70.50
2022-10-25T12:45:58.455Z,70.10
2022-10-25T12:49:03.557Z,70.90
2022-10-25T12:51:47.607Z,70.40
2022-10-25T12:55:03.084Z,70.10
2022-10-25T12:57:43.721Z,70.30
2022-10-25T13:00:17.397Z,69.90
2022-10-25T13:03:03.627Z,68.50
2022-10-25T13:05:56.987Z,68.70
2022-10-25T13:08:28.167Z,68.10
2022-10-25T13:11:02.572Z,67.70
2022-10-25T13:13:33.898Z,65.70
2022-10-25T13:16:04.693Z,66.20
2022-10-25T13:18:45.854Z,65.30
2022-10-25T13:21:16.010Z,66.10
2022-10-25T13:23:59.656Z,66.20
2022-10-25T13:26:54.345Z,65.20
2022-10-25T13:30:01.199Z,64.50
2022-10-25T13:32:31.271Z,64.10
2022-10-25T13:35:00.237Z,62.90
2022-10-25T13:37:43.497Z,62.10
2022-10-25T13:40:25.897Z,62.40
2022-10-25T13:43:07.349Z,61.20
2022-10-25T13:45:44.051Z,60.90
2022-10-25T13:48:25.284Z,60.50
2022-10-25T13:50:55.788Z,59.70
2022-10-25T13:53:27.457Z,58.20
2022-10-25T13:56:00.696Z,58.00
2022-10-25T13:58:50.220Z,57.70
2022-10-25T14:01:57.927Z,58.10
2022-10-25T14:04:50.416Z,57.30
2022-10-25T14:07:48.111Z,57.20
2022-10-25T14:10:27.754Z,57.20
2022-10-25T14:13:08.662Z,56.80
2022-10-25T14:15:44.895Z,56.20
2022-10-25T14:18:20.040Z,53.80
2022-10-25T14:20:51.623Z,54.90
2022-10-25T14:23:24.101Z,55.50
2022-10-25T14:25:56.146Z,55.70
2022-10-25T14:28:27.020Z,55.30
2022-10-25T14:30:59.608Z,55.50
2022-10-25T14:33:31.026Z,54.80
2022-10-25T14:36:09.712Z,55.00
2022-10-25T14:38:51.136Z,55.10
2022-10-25T14:41:24.112Z,55.50
2022-10-25T14:43:53.143Z,56.90
2022-10-25T14:46:24.542Z,56.70
2022-10-25T14:48:57.446Z,56.10
2022-10-25T14:51:31.907Z,56.50
2022-10-25T14:54:03.526Z,56.70
2022-10-25T14:56:36.241Z,55.90
2022-10-25T14:59:09.289Z,55.50
2022-10-25T15:01:41.477Z,57.10
2022-10-25T15:04:10.391Z,57.20
2022-10-25T15:06:42.041Z,58.90
2022-10-25T15:12:19.533Z,60.10
2022-10-25T15:14:48.709Z,60.90
2022-10-25T15:17:26.229Z,60.40
2022-10-25T15:19:59.569Z,61.10
2022-10-25T15:22:31.018Z,62.70
2022-10-25T15:24:59.869Z,64.00
2022-10-25T15:27:35.419Z,63.10
2022-10-25T15:30:05.251Z,63.80
2022-10-25T15:32:37.224Z,64.10
2022-10-25T15:35:06.734Z,65.00
2022-10-25T15:37:35.948Z,65.40
2022-10-25T15:40:16.093Z,66.90
2022-10-25T15:42:45.039Z,69.60
2022-10-25T15:45:14.302Z,70.70
2022-10-25T15:47:47.723Z,73.20
2022-10-25T15:50:19.389Z,75.90
2022-10-25T15:52:48.521Z,77.70
2022-10-25T15:55:22.561Z,79.40
2022-10-25T15:57:51.880Z,81.40
2022-10-25T16:00:25.669Z,81.70
2022-10-25T16:02:58.891Z,84.30
2022-10-25T16:05:29.596Z,85.40
2022-10-25T16:07:58.671Z,87.70
2022-10-25T16:10:29.352Z,88.20
2022-10-25T16:13:03.983Z,89.80
2022-10-25T16:15:33.180Z,90.50
2022-10-25T16:18:03.411Z,91.10
2022-10-25T16:20:33.351Z,91.60
2022-10-25T16:23:02.221Z,92.10
2022-10-25T16:25:32.997Z,92.60
2022-10-25T16:28:03.211Z,92.70
2022-10-25T16:30:36.516Z,93.00
2022-10-25T16:33:08.586Z,93.00
2022-10-25T16:35:37.366Z,93.00
2022-10-25T16:38:07.684Z,93.40
2022-10-25T16:40:36.528Z,93.70
2022-10-25T16:43:05.560Z,94.00
2022-10-25T16:45:37.084Z,94.40
2022-10-25T16:48:08.115Z,95.40
2022-10-25T16:50:37.029Z,96.20
2022-10-25T16:53:09.357Z,96.50
2022-10-25T16:55:38.240Z,97.50
2022-10-25T16:58:06.949Z,98.00
2022-10-25T17:00:36.261Z,98.10
2022-10-25T17:03:05.753Z,98.40
2022-10-25T17:05:36.623Z,98.20
2022-10-25T17:08:05.391Z,98.40
2022-10-25T17:10:34.283Z,99.00
2022-10-25T17:13:03.599Z,99.60
2022-10-25T17:15:32.789Z,99.40
2022-10-25T17:18:01.639Z,99.50
2022-10-25T17:20:30.416Z,99.70
2022-10-25T17:23:00.649Z,99.20
2022-10-25T17:25:29.666Z,99.80
2022-10-25T17:27:58.428Z,99.20
2022-10-25T17:30:27.358Z,99.40
2022-10-25T17:32:56.118Z,99.40
2022-10-25T17:35:29.752Z,99.70
2022-10-25T17:38:00.168Z,99.90
2022-10-25T17:40:29.067Z,99.90
2022-10-25T17:42:57.768Z,99.90
2022-10-25T17:45:26.529Z,99.90
2022-10-25T17:47:55.317Z,99.90
2022-10-25T17:50:24.218Z,99.90
2022-10-25T17:52:53.157Z,99.90
2022-10-25T17:55:23.441Z,99.90
2022-10-25T17:57:52.538Z,99.90
2022-10-25T18:00:21.358Z,99.90
2022-10-25T18:02:50.917Z,99.90
2022-10-25T18:05:21.351Z,99.90
2022-10-25T18:07:51.209Z,99.90
2022-10-25T18:10:20.698Z,99.90
2022-10-25T18:12:51.247Z,99.90
2022-10-25T18:15:20.298Z,99.90
2022-10-25T18:17:49.565Z,99.90
2022-10-25T18:20:18.688Z,99.90
2022-10-25T18:22:58.028Z,99.90
2022-10-25T18:25:26.817Z,99.90
2022-10-25T18:27:56.999Z,99.90
2022-10-25T18:30:25.828Z,99.90
2022-10-25T18:32:54.567Z,99.90
2022-10-25T18:35:23.308Z,99.90
2022-10-25T18:38:05.798Z,99.90
2022-10-25T18:40:35.688Z,99.90
2022-10-25T18:43:05.948Z,99.90
2022-10-25T18:45:39.190Z,99.90
2022-10-25T18:48:08.347Z,99.90
2022-10-25T18:50:40.417Z,99.90
2022-10-25T18:53:55.589Z,99.90
2022-10-25T18:56:25.837Z,99.90
2022-10-25T18:58:56.928Z,99.90
2022-10-25T19:01:28.194Z,99.90
2022-10-25T19:03:58.430Z,99.90
2022-10-25T19:06:27.678Z,99.90
2022-10-25T19:09:01.312Z,99.90
2022-10-25T19:11:32.897Z,99.90
2022-10-25T19:14:04.166Z,99.90
2022-10-25T19:16:33.019Z,99.90
2022-10-25T19:19:07.305Z,99.90
2022-10-25T19:21:36.559Z,99.90
2022-10-25T19:24:05.838Z,99.90
2022-10-25T19:26:34.701Z,99.90
2022-10-25T19:29:04.960Z,99.90
2022-10-25T19:31:33.957Z,99.90
2022-10-25T19:34:03.470Z,99.90
2022-10-25T19:36:32.598Z,99.90
2022-10-25T19:39:01.621Z,99.90
2022-10-25T19:41:34.178Z,99.90
2022-10-25T19:44:04.418Z,99.90
2022-10-25T19:46:33.297Z,99.90
2022-10-25T19:49:02.166Z,99.90
2022-10-25T19:51:30.906Z,99.90
2022-10-25T19:54:00.048Z,99.90
2022-10-25T19:56:28.918Z,99.90
2022-10-25T19:59:11.238Z,99.90
2022-10-25T20:01:46.437Z,99.90
2022-10-25T20:04:15.609Z,99.90
2022-10-25T20:06:44.392Z,99.90
2022-10-25T20:09:13.269Z,99.90
2022-10-25T20:11:42.117Z,99.90
2022-10-25T20:14:12.998Z,99.90
2022-10-25T20:16:41.709Z,99.90
2022-10-25T20:19:14.462Z,99.90
2022-10-25T20:21:43.520Z,99.90
2022-10-25T20:24:12.298Z,99.90
2022-10-25T20:26:44.780Z,99.90
2022-10-25T20:29:20.314Z,99.90
2022-10-25T20:31:50.995Z,99.90
2022-10-25T20:34:20.417Z,99.90
2022-10-25T20:36:49.622Z,99.90
2022-10-25T20:39:18.790Z,99.90
2022-10-25T20:41:48.588Z,99.90
2022-10-25T20:44:18.930Z,99.90
2022-10-25T20:46:48.179Z,99.90
2022-10-25T20:49:17.069Z,99.90
2022-10-25T20:51:45.878Z,99.90
2022-10-25T20:54:15.108Z,99.90
2022-10-25T20:56:43.868Z,99.90
2022-10-25T20:59:12.676Z,99.90
2022-10-25T21:01:43.057Z,99.90
2022-10-25T21:04:11.888Z,99.90
2022-10-25T21:06:40.658Z,99.90
2022-10-25T21:09:09.398Z,99.90
2022-10-25T21:11:38.217Z,99.90
2022-10-25T21:14:07.038Z,99.90
2022-10-25T21:16:35.819Z,99.90
2022-10-25T21:19:06.408Z,99.90
2022-10-25T21:21:35.456Z,99.90
2022-10-25T21:24:06.067Z,99.90
2022-10-25T21:26:34.917Z,99.90
2022-10-25T21:29:03.808Z,99.90
2022-10-25T21:31:32.548Z,99.90
2022-10-25T21:34:01.508Z,99.90
2022-10-25T21:36:31.772Z,99.90
2022-10-25T21:39:00.529Z,99.90
2022-10-25T21:41:30.139Z,99.90
2022-10-25T21:43:59.737Z,99.90
2022-10-25T21:46:30.797Z,99.90
2022-10-25T21:48:59.563Z,99.90
2022-10-25T21:51:28.436Z,99.90
2022-10-25T21:54:01.364Z,99.90
2022-10-25T21:56:31.671Z,99.90
2022-10-25T21:59:01.421Z,99.90
2022-10-25T22:01:31.886Z,99.90
2022-10-25T22:04:00.838Z,99.90
2022-10-25T22:06:29.846Z,99.90
2022-10-25T22:09:00.123Z,99.90
2022-10-25T22:11:30.110Z,99.90
2022-10-25T22:14:00.841Z,99.90
2022-10-25T22:16:30.568Z,99.90
2022-10-25T22:19:03.170Z,99.90
2022-10-25T22:21:34.688Z,99.90
2022-10-25T22:24:05.660Z,99.90
2022-10-25T22:26:34.447Z,99.90
2022-10-25T22:29:03.234Z,99.90
2022-10-25T22:31:32.673Z,99.90
2022-10-25T22:34:03.033Z,99.90
2022-10-25T22:36:33.223Z,99.90
2022-10-25T22:39:02.349Z,99.90
2022-10-25T22:41:33.189Z,99.90
2022-10-25T22:44:02.482Z,99.90
2022-10-25T22:46:33.044Z,99.90
2022-10-25T22:49:06.051Z,99.90
2022-10-25T22:51:34.897Z,99.90
2022-10-25T22:54:05.377Z,99.90
2022-10-25T22:56:35.997Z,99.90
2022-10-25T22:59:06.487Z,99.90
2022-10-25T23:01:36.511Z,99.90
2022-10-25T23:04:07.628Z,99.90
2022-10-25T23:06:38.049Z,99.90
2022-10-25T23:09:09.148Z,99.90
2022-10-25T23:11:40.893Z,99.90
2022-10-25T23:14:14.849Z,99.90
2022-10-25T23:16:47.018Z,99.90
2022-10-25T23:19:15.831Z,99.90
2022-10-25T23:21:44.764Z,99.90
2022-10-25T23:24:13.845Z,99.90
2022-10-25T23:26:44.134Z,99.90
2022-10-25T23:29:13.926Z,99.90
2022-10-25T23:31:42.793Z,99.90
2022-10-25T23:34:12.702Z,99.90
2022-10-25T23:36:41.488Z,99.90
2022-10-25T23:39:10.416Z,99.90
2022-10-25T23:41:39.360Z,99.90
2022-10-25T23:44:09.490Z,99.90
2022-10-25T23:46:38.221Z,99.90
2022-10-25T23:49:07.004Z,99.90
2022-10-25T23:51:35.738Z,99.90
2022-10-25T23:54:04.684Z,99.90
2022-10-25T23:56:33.471Z,99.90
2022-10-25T23:59:02.316Z,99.90
